sensor_id;sensor_type;location;lat;lon;timestamp;pressure;altitude;pressure_sealevel;temperature;humidity
64086;BME280;50333;47.436;21.390;2023-01-10T00:01:41;99405.38;;;7.69;92.22
64086;BME280;50333;47.436;21.390;2023-01-10T00:04:09;99393.63;;;7.82;91.54
64086;BME280;50333;47.436;21.390;2023-01-10T00:06:36;99394.16;;;7.89;90.71
64086;BME280;50333;47.436;21.390;2023-01-10T00:09:04;99390.25;;;7.86;91.57
64086;BME280;50333;47.436;21.390;2023-01-10T00:11:32;99394.44;;;7.82;91.59
64086;BME280;50333;47.436;21.390;2023-01-10T00:14:18;99388.44;;;7.82;91.71
64086;BME280;50333;47.436;21.390;2023-01-10T00:16:46;99387.91;;;7.90;91.29
64086;BME280;50333;47.436;21.390;2023-01-10T00:19:14;99377.25;;;7.91;91.55
64086;BME280;50333;47.436;21.390;2023-01-10T00:21:41;99382.75;;;7.80;91.95
64086;BME280;50333;47.436;21.390;2023-01-10T00:24:10;99384.28;;;7.86;91.67
64086;BME280;50333;47.436;21.390;2023-01-10T00:26:56;99380.34;;;7.93;91.35
64086;BME280;50333;47.436;21.390;2023-01-10T00:29:26;99378.41;;;7.70;92.14
64086;BME280;50333;47.436;21.390;2023-01-10T00:32:01;99381.47;;;7.77;92.29
64086;BME280;50333;47.436;21.390;2023-01-10T00:34:29;99386.09;;;7.80;92.05
64086;BME280;50333;47.436;21.390;2023-01-10T00:36:59;99378.41;;;7.65;92.95
64086;BME280;50333;47.436;21.390;2023-01-10T00:39:26;99379.91;;;7.76;92.56
64086;BME280;50333;47.436;21.390;2023-01-10T00:41:54;99384.09;;;7.72;92.70
64086;BME280;50333;47.436;21.390;2023-01-10T00:44:40;99384.56;;;7.79;92.30
64086;BME280;50333;47.436;21.390;2023-01-10T00:47:08;99384.84;;;7.78;92.36
64086;BME280;50333;47.436;21.390;2023-01-10T00:49:36;99387.72;;;7.71;92.57
64086;BME280;50333;47.436;21.390;2023-01-10T00:52:04;99383.50;;;7.80;92.08
64086;BME280;50333;47.436;21.390;2023-01-10T00:54:32;99390.81;;;7.68;92.19
64086;BME280;50333;47.436;21.390;2023-01-10T00:57:00;99380.75;;;7.61;92.64
64086;BME280;50333;47.436;21.390;2023-01-10T00:59:28;99390.53;;;7.80;92.37
64086;BME280;50333;47.436;21.390;2023-01-10T01:01:56;99396.00;;;7.68;92.59
64086;BME280;50333;47.436;21.390;2023-01-10T01:04:24;99380.47;;;7.63;92.57
64086;BME280;50333;47.436;21.390;2023-01-10T01:06:52;99383.00;;;7.78;91.78
64086;BME280;50333;47.436;21.390;2023-01-10T01:09:20;99382.03;;;7.59;92.89
64086;BME280;50333;47.436;21.390;2023-01-10T01:11:48;99389.03;;;7.68;92.12
64086;BME280;50333;47.436;21.390;2023-01-10T01:14:15;99377.34;;;7.71;91.63
64086;BME280;50333;47.436;21.390;2023-01-10T01:16:43;99385.13;;;7.71;91.58
64086;BME280;50333;47.436;21.390;2023-01-10T01:19:11;99386.94;;;7.70;91.16
64086;BME280;50333;47.436;21.390;2023-01-10T01:21:39;99386.16;;;7.75;90.58
64086;BME280;50333;47.436;21.390;2023-01-10T01:24:09;99391.37;;;7.70;91.08
64086;BME280;50333;47.436;21.390;2023-01-10T01:26:37;99385.94;;;7.66;91.27
64086;BME280;50333;47.436;21.390;2023-01-10T01:29:06;99375.22;;;7.78;90.56
64086;BME280;50333;47.436;21.390;2023-01-10T01:31:34;99369.53;;;7.76;90.27
64086;BME280;50333;47.436;21.390;2023-01-10T01:34:02;99374.16;;;7.89;89.70
64086;BME280;50333;47.436;21.390;2023-01-10T01:36:30;99371.34;;;7.81;89.42
64086;BME280;50333;47.436;21.390;2023-01-10T01:38:58;99370.53;;;7.85;89.57
64086;BME280;50333;47.436;21.390;2023-01-10T01:41:25;99360.97;;;7.81;89.57
64086;BME280;50333;47.436;21.390;2023-01-10T01:44:15;99351.81;;;7.88;89.12
64086;BME280;50333;47.436;21.390;2023-01-10T01:46:47;99352.91;;;7.82;89.24
64086;BME280;50333;47.436;21.390;2023-01-10T01:49:20;99365.41;;;7.75;89.63
64086;BME280;50333;47.436;21.390;2023-01-10T01:51:55;99359.72;;;7.63;90.14
64086;BME280;50333;47.436;21.390;2023-01-10T01:54:27;99364.62;;;7.69;89.80
64086;BME280;50333;47.436;21.390;2023-01-10T01:57:09;99360.50;;;7.63;90.27
64086;BME280;50333;47.436;21.390;2023-01-10T01:59:41;99356.00;;;7.84;89.12
64086;BME280;50333;47.436;21.390;2023-01-10T02:02:32;99353.97;;;7.76;89.54
64086;BME280;50333;47.436;21.390;2023-01-10T02:05:07;99362.69;;;7.96;88.39
64086;BME280;50333;47.436;21.390;2023-01-10T02:07:38;99360.06;;;8.01;88.23
64086;BME280;50333;47.436;21.390;2023-01-10T02:10:11;99352.53;;;8.04;87.83
64086;BME280;50333;47.436;21.390;2023-01-10T02:12:44;99348.69;;;7.97;88.11
64086;BME280;50333;47.436;21.390;2023-01-10T02:15:13;99342.66;;;8.06;87.81
64086;BME280;50333;47.436;21.390;2023-01-10T02:17:43;99349.16;;;8.04;87.94
64086;BME280;50333;47.436;21.390;2023-01-10T02:20:16;99348.44;;;7.93;88.27
64086;BME280;50333;47.436;21.390;2023-01-10T02:31:03;99346.28;;;8.05;87.77
64086;BME280;50333;47.436;21.390;2023-01-10T02:33:56;99351.09;;;7.83;88.62
64086;BME280;50333;47.436;21.390;2023-01-10T02:39:33;99358.03;;;7.98;88.22
64086;BME280;50333;47.436;21.390;2023-01-10T02:42:07;99361.22;;;7.79;88.80
64086;BME280;50333;47.436;21.390;2023-01-10T02:44:44;99355.47;;;7.92;88.61
64086;BME280;50333;47.436;21.390;2023-01-10T02:47:14;99356.53;;;7.81;88.88
64086;BME280;50333;47.436;21.390;2023-01-10T02:49:44;99354.72;;;7.77;89.07
64086;BME280;50333;47.436;21.390;2023-01-10T02:52:16;99352.94;;;7.72;89.33
64086;BME280;50333;47.436;21.390;2023-01-10T02:54:47;99351.31;;;7.86;88.61
64086;BME280;50333;47.436;21.390;2023-01-10T03:08:03;99361.25;;;7.74;89.39
64086;BME280;50333;47.436;21.390;2023-01-10T03:10:42;99353.69;;;7.83;89.24
64086;BME280;50333;47.436;21.390;2023-01-10T03:13:13;99358.38;;;7.81;89.09
64086;BME280;50333;47.436;21.390;2023-01-10T03:15:44;99356.81;;;7.74;89.22
64086;BME280;50333;47.436;21.390;2023-01-10T03:18:18;99349.56;;;7.71;89.62
64086;BME280;50333;47.436;21.390;2023-01-10T03:20:48;99350.88;;;7.74;89.42
64086;BME280;50333;47.436;21.390;2023-01-10T03:23:18;99358.66;;;7.69;89.70
64086;BME280;50333;47.436;21.390;2023-01-10T03:25:50;99353.94;;;7.81;89.44
64086;BME280;50333;47.436;21.390;2023-01-10T03:28:24;99360.47;;;7.79;89.51
64086;BME280;50333;47.436;21.390;2023-01-10T03:30:57;99365.69;;;7.63;90.20
64086;BME280;50333;47.436;21.390;2023-01-10T03:33:30;99368.56;;;7.62;90.81
64086;BME280;50333;47.436;21.390;2023-01-10T03:43:58;99372.44;;;7.59;91.30
64086;BME280;50333;47.436;21.390;2023-01-10T03:46:50;99360.56;;;7.48;91.54
64086;BME280;50333;47.436;21.390;2023-01-10T03:49:21;99364.97;;;7.47;91.85
64086;BME280;50333;47.436;21.390;2023-01-10T03:51:52;99360.34;;;7.29;93.05
64086;BME280;50333;47.436;21.390;2023-01-10T03:54:20;99367.03;;;7.40;92.27
64086;BME280;50333;47.436;21.390;2023-01-10T03:56:49;99372.75;;;7.47;91.97
64086;BME280;50333;47.436;21.390;2023-01-10T03:59:20;99369.69;;;7.25;92.83
64086;BME280;50333;47.436;21.390;2023-01-10T04:01:50;99375.13;;;7.39;92.59
64086;BME280;50333;47.436;21.390;2023-01-10T04:04:18;99377.66;;;7.49;92.13
64086;BME280;50333;47.436;21.390;2023-01-10T04:06:46;99382.84;;;7.49;91.87
64086;BME280;50333;47.436;21.390;2023-01-10T04:09:13;99385.94;;;7.61;91.49
64086;BME280;50333;47.436;21.390;2023-01-10T04:11:41;99384.63;;;7.59;91.28
64086;BME280;50333;47.436;21.390;2023-01-10T04:14:09;99397.38;;;7.55;91.46
64086;BME280;50333;47.436;21.390;2023-01-10T04:16:36;99396.81;;;7.63;91.45
64086;BME280;50333;47.436;21.390;2023-01-10T04:19:04;99396.03;;;7.63;90.91
64086;BME280;50333;47.436;21.390;2023-01-10T04:21:32;99402.78;;;7.64;90.99
64086;BME280;50333;47.436;21.390;2023-01-10T04:24:00;99399.41;;;7.68;90.84
64086;BME280;50333;47.436;21.390;2023-01-10T04:26:28;99394.72;;;7.76;90.61
64086;BME280;50333;47.436;21.390;2023-01-10T04:28:56;99398.63;;;7.63;91.05
64086;BME280;50333;47.436;21.390;2023-01-10T04:31:23;99397.84;;;7.67;90.79
64086;BME280;50333;47.436;21.390;2023-01-10T04:33:53;99404.31;;;7.75;90.58
64086;BME280;50333;47.436;21.390;2023-01-10T04:36:21;99403.03;;;7.67;90.65
64086;BME280;50333;47.436;21.390;2023-01-10T04:38:50;99398.56;;;7.78;90.51
64086;BME280;50333;47.436;21.390;2023-01-10T04:41:18;99405.06;;;7.86;90.00
64086;BME280;50333;47.436;21.390;2023-01-10T04:43:46;99400.19;;;7.69;90.17
64086;BME280;50333;47.436;21.390;2023-01-10T04:46:13;99400.16;;;7.74;89.92
64086;BME280;50333;47.436;21.390;2023-01-10T04:48:41;99405.84;;;7.81;90.05
64086;BME280;50333;47.436;21.390;2023-01-10T04:51:09;99401.75;;;7.70;90.16
64086;BME280;50333;47.436;21.390;2023-01-10T04:53:37;99414.72;;;7.70;90.28
64086;BME280;50333;47.436;21.390;2023-01-10T04:56:07;99411.06;;;7.66;90.52
64086;BME280;50333;47.436;21.390;2023-01-10T04:58:36;99407.97;;;7.64;90.33
64086;BME280;50333;47.436;21.390;2023-01-10T05:01:09;99405.91;;;7.61;90.41
64086;BME280;50333;47.436;21.390;2023-01-10T05:03:38;99410.53;;;7.79;89.57
64086;BME280;50333;47.436;21.390;2023-01-10T05:06:06;99415.75;;;7.69;89.79
64086;BME280;50333;47.436;21.390;2023-01-10T05:08:34;99417.56;;;7.63;90.30
64086;BME280;50333;47.436;21.390;2023-01-10T05:11:02;99426.12;;;7.59;90.08
64086;BME280;50333;47.436;21.390;2023-01-10T05:13:30;99432.34;;;7.63;90.10
64086;BME280;50333;47.436;21.390;2023-01-10T05:15:58;99433.94;;;7.53;90.56
64086;BME280;50333;47.436;21.390;2023-01-10T05:18:27;99452.59;;;7.61;90.12
64086;BME280;50333;47.436;21.390;2023-01-10T05:21:04;99453.66;;;7.60;90.10
64086;BME280;50333;47.436;21.390;2023-01-10T05:23:32;99469.75;;;7.36;90.26
64086;BME280;50333;47.436;21.390;2023-01-10T05:26:05;99466.31;;;7.71;89.78
64086;BME280;50333;47.436;21.390;2023-01-10T05:28:34;99472.06;;;7.58;90.24
64086;BME280;50333;47.436;21.390;2023-01-10T05:31:04;99465.53;;;7.71;89.38
64086;BME280;50333;47.436;21.390;2023-01-10T05:33:32;99474.31;;;7.80;89.34
64086;BME280;50333;47.436;21.390;2023-01-10T05:36:01;99470.72;;;7.76;89.06
64086;BME280;50333;47.436;21.390;2023-01-10T05:38:30;99475.91;;;7.76;89.43
64086;BME280;50333;47.436;21.390;2023-01-10T05:40:59;99479.56;;;7.75;89.41
64086;BME280;50333;47.436;21.390;2023-01-10T05:43:27;99491.00;;;7.59;89.25
64086;BME280;50333;47.436;21.390;2023-01-10T05:45:56;99492.53;;;7.65;89.83
64086;BME280;50333;47.436;21.390;2023-01-10T05:48:24;99488.88;;;7.76;89.12
64086;BME280;50333;47.436;21.390;2023-01-10T05:50:51;99492.00;;;7.68;89.46
64086;BME280;50333;47.436;21.390;2023-01-10T05:53:19;99493.03;;;7.82;88.57
64086;BME280;50333;47.436;21.390;2023-01-10T05:55:55;99494.06;;;7.76;88.69
64086;BME280;50333;47.436;21.390;2023-01-10T05:58:24;99504.69;;;7.80;88.61
64086;BME280;50333;47.436;21.390;2023-01-10T06:00:53;99506.78;;;7.83;88.68
64086;BME280;50333;47.436;21.390;2023-01-10T06:03:21;99518.50;;;7.39;89.51
64086;BME280;50333;47.436;21.390;2023-01-10T06:05:49;99519.50;;;7.79;88.60
64086;BME280;50333;47.436;21.390;2023-01-10T06:08:17;99518.16;;;7.97;87.64
64086;BME280;50333;47.436;21.390;2023-01-10T06:10:45;99509.34;;;7.88;88.03
64086;BME280;50333;47.436;21.390;2023-01-10T06:13:12;99515.81;;;7.90;88.01
64086;BME280;50333;47.436;21.390;2023-01-10T06:15:40;99520.50;;;7.83;87.59
64086;BME280;50333;47.436;21.390;2023-01-10T06:18:08;99517.38;;;7.91;87.87
64086;BME280;50333;47.436;21.390;2023-01-10T06:20:40;99508.59;;;7.87;87.68
64086;BME280;50333;47.436;21.390;2023-01-10T06:23:08;99516.66;;;7.70;88.37
64086;BME280;50333;47.436;21.390;2023-01-10T06:25:36;99513.78;;;7.77;88.61
64086;BME280;50333;47.436;21.390;2023-01-10T06:28:08;99511.97;;;7.67;88.78
64086;BME280;50333;47.436;21.390;2023-01-10T06:30:37;99501.31;;;7.84;88.26
64086;BME280;50333;47.436;21.390;2023-01-10T06:33:08;99506.53;;;7.74;88.62
64086;BME280;50333;47.436;21.390;2023-01-10T06:35:36;99505.75;;;7.79;88.79
64086;BME280;50333;47.436;21.390;2023-01-10T06:38:04;99507.03;;;7.86;88.32
64086;BME280;50333;47.436;21.390;2023-01-10T06:40:32;99510.97;;;7.63;88.80
64086;BME280;50333;47.436;21.390;2023-01-10T06:42:59;99498.75;;;7.69;88.46
64086;BME280;50333;47.436;21.390;2023-01-10T06:45:28;99484.69;;;7.85;88.89
64086;BME280;50333;47.436;21.390;2023-01-10T06:47:55;99502.34;;;7.78;88.58
64086;BME280;50333;47.436;21.390;2023-01-10T06:50:23;99512.50;;;7.74;88.19
64086;BME280;50333;47.436;21.390;2023-01-10T06:52:58;99533.00;;;7.66;88.28
64086;BME280;50333;47.436;21.390;2023-01-10T06:55:27;99538.16;;;7.76;87.95
64086;BME280;50333;47.436;21.390;2023-01-10T06:57:59;99536.09;;;7.73;87.61
64086;BME280;50333;47.436;21.390;2023-01-10T07:00:28;99547.53;;;7.77;87.50
64086;BME280;50333;47.436;21.390;2023-01-10T07:03:00;99554.00;;;7.74;87.45
64086;BME280;50333;47.436;21.390;2023-01-10T07:05:28;99564.88;;;7.71;87.76
64086;BME280;50333;47.436;21.390;2023-01-10T07:07:57;99571.91;;;7.76;87.55
64086;BME280;50333;47.436;21.390;2023-01-10T07:10:27;99556.31;;;7.86;87.21
64086;BME280;50333;47.436;21.390;2023-01-10T07:12:56;99571.12;;;7.86;87.07
64086;BME280;50333;47.436;21.390;2023-01-10T07:15:26;99582.53;;;7.80;87.06
64086;BME280;50333;47.436;21.390;2023-01-10T07:17:55;99589.28;;;7.86;86.97
64086;BME280;50333;47.436;21.390;2023-01-10T07:20:25;99582.53;;;7.85;86.82
64086;BME280;50333;47.436;21.390;2023-01-10T07:22:54;99584.09;;;7.70;87.03
64086;BME280;50333;47.436;21.390;2023-01-10T07:25:23;99584.38;;;7.64;87.36
64086;BME280;50333;47.436;21.390;2023-01-10T07:27:51;99578.66;;;7.67;87.25
64086;BME280;50333;47.436;21.390;2023-01-10T07:30:22;99578.16;;;7.60;87.42
64086;BME280;50333;47.436;21.390;2023-01-10T07:32:55;99578.66;;;7.72;87.16
64086;BME280;50333;47.436;21.390;2023-01-10T07:35:24;99573.22;;;7.68;87.08
64086;BME280;50333;47.436;21.390;2023-01-10T07:37:52;99575.81;;;7.79;86.66
64086;BME280;50333;47.436;21.390;2023-01-10T07:40:20;99574.25;;;7.78;86.35
64086;BME280;50333;47.436;21.390;2023-01-10T07:42:47;99588.53;;;7.75;86.47
64086;BME280;50333;47.436;21.390;2023-01-10T07:45:16;99588.53;;;7.70;86.81
64086;BME280;50333;47.436;21.390;2023-01-10T07:47:44;99592.16;;;7.69;86.83
64086;BME280;50333;47.436;21.390;2023-01-10T07:50:12;99589.03;;;7.72;86.84
64086;BME280;50333;47.436;21.390;2023-01-10T07:52:40;99587.47;;;7.81;86.27
64086;BME280;50333;47.436;21.390;2023-01-10T07:55:08;99597.59;;;7.78;86.27
64086;BME280;50333;47.436;21.390;2023-01-10T07:57:36;99597.34;;;7.89;86.18
64086;BME280;50333;47.436;21.390;2023-01-10T08:00:04;99605.88;;;7.80;85.92
64086;BME280;50333;47.436;21.390;2023-01-10T08:02:32;99620.19;;;7.77;86.56
64086;BME280;50333;47.436;21.390;2023-01-10T08:05:01;99625.88;;;7.95;85.82
64086;BME280;50333;47.436;21.390;2023-01-10T08:07:29;99625.63;;;7.96;85.72
64086;BME280;50333;47.436;21.390;2023-01-10T08:09:57;99627.16;;;7.92;86.21
64086;BME280;50333;47.436;21.390;2023-01-10T08:12:25;99634.19;;;7.86;86.06
64086;BME280;50333;47.436;21.390;2023-01-10T08:14:53;99650.25;;;7.93;85.85
64086;BME280;50333;47.436;21.390;2023-01-10T08:17:21;99652.84;;;8.09;85.44
64086;BME280;50333;47.436;21.390;2023-01-10T08:19:49;99663.50;;;8.02;85.43
64086;BME280;50333;47.436;21.390;2023-01-10T08:22:17;99664.25;;;8.03;85.19
64086;BME280;50333;47.436;21.390;2023-01-10T08:24:45;99676.22;;;8.14;84.99
64086;BME280;50333;47.436;21.390;2023-01-10T08:27:13;99675.44;;;8.14;84.79
64086;BME280;50333;47.436;21.390;2023-01-10T08:29:40;99682.44;;;8.13;85.05
64086;BME280;50333;47.436;21.390;2023-01-10T08:32:08;99695.41;;;8.23;84.77
64086;BME280;50333;47.436;21.390;2023-01-10T08:34:36;99704.25;;;8.27;84.49
64086;BME280;50333;47.436;21.390;2023-01-10T08:37:04;99704.78;;;8.29;84.44
64086;BME280;50333;47.436;21.390;2023-01-10T08:39:31;99701.66;;;7.86;85.81
64086;BME280;50333;47.436;21.390;2023-01-10T08:42:01;99709.44;;;8.07;85.31
64086;BME280;50333;47.436;21.390;2023-01-10T08:44:29;99716.44;;;8.17;85.13
64086;BME280;50333;47.436;21.390;2023-01-10T08:46:57;99724.25;;;8.06;86.01
64086;BME280;50333;47.436;21.390;2023-01-10T08:49:25;99737.22;;;8.11;85.23
64086;BME280;50333;47.436;21.390;2023-01-10T08:51:53;99730.22;;;8.12;85.20
64086;BME280;50333;47.436;21.390;2023-01-10T08:54:20;99737.22;;;8.17;84.95
64086;BME280;50333;47.436;21.390;2023-01-10T08:56:48;99748.91;;;8.09;85.45
64086;BME280;50333;47.436;21.390;2023-01-10T08:59:16;99759.53;;;8.07;85.79
64086;BME280;50333;47.436;21.390;2023-01-10T09:01:44;99774.84;;;8.04;85.81
64086;BME280;50333;47.436;21.390;2023-01-10T09:04:12;99783.19;;;8.21;85.84
64086;BME280;50333;47.436;21.390;2023-01-10T09:06:40;99787.87;;;8.24;85.26
64086;BME280;50333;47.436;21.390;2023-01-10T09:09:08;99789.94;;;8.07;85.79
64086;BME280;50333;47.436;21.390;2023-01-10T09:11:36;99788.09;;;8.12;86.17
64086;BME280;50333;47.436;21.390;2023-01-10T09:14:04;99789.41;;;8.10;86.02
64086;BME280;50333;47.436;21.390;2023-01-10T09:16:33;99788.88;;;8.18;85.73
64086;BME280;50333;47.436;21.390;2023-01-10T09:19:01;99786.81;;;8.36;85.18
64086;BME280;50333;47.436;21.390;2023-01-10T09:21:30;99782.94;;;8.33;85.57
64086;BME280;50333;47.436;21.390;2023-01-10T09:23:58;99781.09;;;8.34;85.37
64086;BME280;50333;47.436;21.390;2023-01-10T09:26:26;99789.41;;;8.25;86.02
64086;BME280;50333;47.436;21.390;2023-01-10T09:28:54;99781.34;;;8.22;86.11
64086;BME280;50333;47.436;21.390;2023-01-10T09:31:21;99780.06;;;8.24;86.37
64086;BME280;50333;47.436;21.390;2023-01-10T09:33:49;99784.75;;;8.27;86.19
64086;BME280;50333;47.436;21.390;2023-01-10T09:36:17;99789.97;;;8.38;85.80
64086;BME280;50333;47.436;21.390;2023-01-10T09:38:44;99794.09;;;8.34;86.01
64086;BME280;50333;47.436;21.390;2023-01-10T09:44:13;99808.38;;;8.26;86.43
64086;BME280;50333;47.436;21.390;2023-01-10T09:46:59;99820.28;;;8.11;88.32
64086;BME280;50333;47.436;21.390;2023-01-10T09:52:30;99815.91;;;8.22;87.20
64086;BME280;50333;47.436;21.390;2023-01-10T09:55:27;99816.94;;;8.31;87.13
64086;BME280;50333;47.436;21.390;2023-01-10T09:57:55;99815.63;;;8.34;87.19
64086;BME280;50333;47.436;21.390;2023-01-10T10:00:33;99823.16;;;8.10;87.75
64086;BME280;50333;47.436;21.390;2023-01-10T10:05:52;99820.84;;;8.29;87.63
64086;BME280;50333;47.436;21.390;2023-01-10T10:08:38;99828.38;;;8.36;87.54
64086;BME280;50333;47.436;21.390;2023-01-10T10:14:03;99823.97;;;8.31;88.18
64086;BME280;50333;47.436;21.390;2023-01-10T10:21:52;99828.38;;;8.30;87.24
64086;BME280;50333;47.436;21.390;2023-01-10T10:27:27;99833.09;;;8.49;86.07
64086;BME280;50333;47.436;21.390;2023-01-10T10:35:44;99841.16;;;8.53;86.07
64086;BME280;50333;47.436;21.390;2023-01-10T10:38:20;99846.88;;;8.75;85.56
64086;BME280;50333;47.436;21.390;2023-01-10T10:40:50;99860.62;;;8.45;86.78
64086;BME280;50333;47.436;21.390;2023-01-10T10:43:22;99862.97;;;9.03;84.92
64086;BME280;50333;47.436;21.390;2023-01-10T10:59:16;99866.00;;;10.06;80.57
64086;BME280;50333;47.436;21.390;2023-01-10T11:01:45;99866.00;;;10.06;80.57
64086;BME280;50333;47.436;21.390;2023-01-10T11:04:19;99867.78;;;9.51;81.07
64086;BME280;50333;47.436;21.390;2023-01-10T11:06:49;99869.91;;;9.33;82.75
64086;BME280;50333;47.436;21.390;2023-01-10T11:09:20;99861.03;;;9.50;82.65
64086;BME280;50333;47.436;21.390;2023-01-10T11:12:13;99867.44;;;9.78;80.89
64086;BME280;50333;47.436;21.390;2023-01-10T11:14:46;99864.75;;;9.93;79.55
64086;BME280;50333;47.436;21.390;2023-01-10T11:17:28;99870.87;;;9.63;81.23
64086;BME280;50333;47.436;21.390;2023-01-10T11:20:00;99875.59;;;9.51;81.95
64086;BME280;50333;47.436;21.390;2023-01-10T11:22:32;99882.38;;;9.47;82.11
64086;BME280;50333;47.436;21.390;2023-01-10T11:25:03;99887.06;;;9.50;82.26
64086;BME280;50333;47.436;21.390;2023-01-10T11:28:11;99891.75;;;9.53;82.21
64086;BME280;50333;47.436;21.390;2023-01-10T11:30:36;99890.12;;;9.67;81.66
64086;BME280;50333;47.436;21.390;2023-01-10T11:33:06;99896.38;;;9.66;81.91
64086;BME280;50333;47.436;21.390;2023-01-10T11:35:56;99890.62;;;9.69;80.77
64086;BME280;50333;47.436;21.390;2023-01-10T11:38:24;99894.41;;;9.22;82.53
64086;BME280;50333;47.436;21.390;2023-01-10T11:41:04;99903.00;;;9.12;82.70
64086;BME280;50333;47.436;21.390;2023-01-10T11:43:38;99909.50;;;8.89;83.99
64086;BME280;50333;47.436;21.390;2023-01-10T11:46:20;99913.12;;;9.09;83.19
64086;BME280;50333;47.436;21.390;2023-01-10T11:49:10;99916.25;;;9.00;83.78
64086;BME280;50333;47.436;21.390;2023-01-10T11:51:51;99919.09;;;9.14;83.22
64086;BME280;50333;47.436;21.390;2023-01-10T11:54:25;99922.75;;;9.29;82.45
64086;BME280;50333;47.436;21.390;2023-01-10T11:57:27;99933.91;;;9.39;81.61
64086;BME280;50333;47.436;21.390;2023-01-10T12:00:03;99936.78;;;9.38;81.67
64086;BME280;50333;47.436;21.390;2023-01-10T12:02:41;99932.34;;;9.28;82.61
64086;BME280;50333;47.436;21.390;2023-01-10T12:05:17;99937.28;;;9.40;82.39
64086;BME280;50333;47.436;21.390;2023-01-10T12:08:03;99942.22;;;9.41;81.81
64086;BME280;50333;47.436;21.390;2023-01-10T12:10:34;99951.53;;;9.68;80.94
64086;BME280;50333;47.436;21.390;2023-01-10T12:13:15;99954.34;;;9.87;79.74
64086;BME280;50333;47.436;21.390;2023-01-10T12:15:43;99954.19;;;9.53;80.88
64086;BME280;50333;47.436;21.390;2023-01-10T12:18:13;99961.75;;;9.49;81.55
64086;BME280;50333;47.436;21.390;2023-01-10T12:20:47;99967.72;;;9.55;81.32
64086;BME280;50333;47.436;21.390;2023-01-10T12:23:18;99966.06;;;9.90;79.52
64086;BME280;50333;47.436;21.390;2023-01-10T12:25:47;99967.97;;;9.53;81.36
64086;BME280;50333;47.436;21.390;2023-01-10T12:28:19;99974.69;;;9.70;81.12
64086;BME280;50333;47.436;21.390;2023-01-10T12:30:48;99977.00;;;9.92;79.96
64086;BME280;50333;47.436;21.390;2023-01-10T12:33:27;99974.34;;;10.07;78.81
64086;BME280;50333;47.436;21.390;2023-01-10T12:36:29;99971.53;;;9.88;79.03
64086;BME280;50333;47.436;21.390;2023-01-10T12:44:32;99981.09;;;10.03;78.96
64086;BME280;50333;47.436;21.390;2023-01-10T12:47:11;99982.19;;;9.92;79.73
64086;BME280;50333;47.436;21.390;2023-01-10T12:49:51;99991.84;;;9.96;79.59
64086;BME280;50333;47.436;21.390;2023-01-10T12:52:47;99991.34;;;9.89;79.70
64086;BME280;50333;47.436;21.390;2023-01-10T12:55:16;99992.38;;;9.78;80.03
64086;BME280;50333;47.436;21.390;2023-01-10T12:57:50;100002.31;;;9.71;80.61
64086;BME280;50333;47.436;21.390;2023-01-10T13:00:36;99997.38;;;9.64;80.62
64086;BME280;50333;47.436;21.390;2023-01-10T13:03:19;100015.06;;;9.72;80.44
64086;BME280;50333;47.436;21.390;2023-01-10T13:05:48;100005.69;;;9.56;81.40
64086;BME280;50333;47.436;21.390;2023-01-10T13:08:22;100009.34;;;9.65;81.21
64086;BME280;50333;47.436;21.390;2023-01-10T13:10:54;100012.44;;;9.72;80.93
64086;BME280;50333;47.436;21.390;2023-01-10T13:21:41;100029.38;;;9.65;81.57
64086;BME280;50333;47.436;21.390;2023-01-10T13:24:21;100022.88;;;9.57;81.62
64086;BME280;50333;47.436;21.390;2023-01-10T13:27:01;100032.22;;;9.63;81.53
64086;BME280;50333;47.436;21.390;2023-01-10T13:29:37;100032.78;;;9.55;81.39
64086;BME280;50333;47.436;21.390;2023-01-10T13:32:29;100039.00;;;9.64;81.25
64086;BME280;50333;47.436;21.390;2023-01-10T13:35:35;100044.22;;;9.64;81.18
64086;BME280;50333;47.436;21.390;2023-01-10T13:38:04;100046.56;;;9.45;82.08
64086;BME280;50333;47.436;21.390;2023-01-10T13:40:32;100049.69;;;9.47;82.52
64086;BME280;50333;47.436;21.390;2023-01-10T13:51:21;100070.22;;;9.43;82.23
64086;BME280;50333;47.436;21.390;2023-01-10T13:56:33;100085.81;;;9.28;83.09
64086;BME280;50333;47.436;21.390;2023-01-10T13:59:03;100087.16;;;9.36;82.89
64086;BME280;50333;47.436;21.390;2023-01-10T14:01:52;100082.69;;;9.11;84.11
64086;BME280;50333;47.436;21.390;2023-01-10T14:04:54;100095.06;;;8.83;85.07
64086;BME280;50333;47.436;21.390;2023-01-10T14:10:00;100099.09;;;9.21;83.87
64086;BME280;50333;47.436;21.390;2023-01-10T14:12:39;100097.53;;;9.15;84.37
64086;BME280;50333;47.436;21.390;2023-01-10T14:15:26;100109.25;;;9.18;84.33
64086;BME280;50333;47.436;21.390;2023-01-10T14:18:02;100102.69;;;8.42;87.90
64086;BME280;50333;47.436;21.390;2023-01-10T14:20:32;100099.13;;;8.53;88.87
64086;BME280;50333;47.436;21.390;2023-01-10T14:23:18;100108.22;;;8.51;87.32
64086;BME280;50333;47.436;21.390;2023-01-10T14:25:54;100103.78;;;8.46;86.93
64086;BME280;50333;47.436;21.390;2023-01-10T14:28:29;100113.59;;;7.96;89.83
64086;BME280;50333;47.436;21.390;2023-01-10T14:33:34;100116.84;;;7.81;89.63
64086;BME280;50333;47.436;21.390;2023-01-10T14:36:26;100120.44;;;8.12;87.59
64086;BME280;50333;47.436;21.390;2023-01-10T14:38:58;100120.22;;;8.19;86.75
64086;BME280;50333;47.436;21.390;2023-01-10T14:41:34;100130.72;;;7.97;87.64
64086;BME280;50333;47.436;21.390;2023-01-10T14:46:46;100140.03;;;7.93;88.09
64086;BME280;50333;47.436;21.390;2023-01-10T14:49:25;100145.09;;;7.50;90.03
64086;BME280;50333;47.436;21.390;2023-01-10T14:51:54;100143.38;;;7.88;87.14
64086;BME280;50333;47.436;21.390;2023-01-10T14:54:27;100155.19;;;7.74;87.33
64086;BME280;50333;47.436;21.390;2023-01-10T14:56:56;100159.09;;;7.77;86.41
64086;BME280;50333;47.436;21.390;2023-01-10T14:59:27;100159.66;;;7.51;88.10
64086;BME280;50333;47.436;21.390;2023-01-10T15:02:00;100165.31;;;7.48;87.80
64086;BME280;50333;47.436;21.390;2023-01-10T15:04:30;100172.72;;;7.62;86.89
64086;BME280;50333;47.436;21.390;2023-01-10T15:07:14;100170.56;;;7.53;86.34